METAR Data
IDs: Format: Raw Decoded Include TAF

Data at: 1959 UTC 18 Apr 2021

ESGT 181950Z AUTO 35003KT 9999 NCD 05/01 Q1027